[source: ADDS]
METAR
EDDV 250550Z 28007KT 9999 FEW020 OVC023 11/08 Q1016 NOSIG

TAF EDDV 250500Z 2506/2606 28004KT 9999 BKN030 BECMG 2506/2508 29009KT BECMG 2517/2519 VRB03KT PROB30 TEMPO 2601/2604 2000 BCFG BECMG 2604/2606 22006KT ETHS 250520Z 29007KT 9999 BKN025 11/07 Q1015 BLU

ETHC 250520Z AUTO 25005KT 6000 // ////// 11/08 Q1015 ///

EDVK 250550Z 34009KT 9999 FEW015 BKN019 09/08 Q1016

TAF AMD EDVK 250602Z 2506/2515 32008KT 9999 FEW015 BKN025
TAF
TAF EDDV 250500Z 2506/2606 28004KT 9999 BKN030 BECMG 2506/2508 29009KT BECMG 2517/2519 VRB03KT PROB30 TEMPO 2601/2604 2000 BCFG BECMG 2604/2606 22006KT

TAF EDVK 250500Z 2506/2515 30007KT 9999 FEW030

SR / SS: 03:09 / 19:20 UTC (EDVE 2019-05-25)
Mathias und Stefan haben die theoretische Prüfung bestanden! Herzlichen Glückwunsch und weiterhin viel Erfolg für die restliche Ausbildung! +++ Herzlich Willkommen in der FFG Jan! +++ Miro hat seine Praktische Prüfung bestanden! Herzlichen Glückwunsch und Always Happy Landings! +++ Stefan hat sich freigeflogen. Herzlichen Glückwunsch und weiterhin always happy landings! +++ David und Christian haben die Nachtflugberechtigung erhalten. Herzlichen Glückwunsch und viel Spaß beim Erleben der Faszination "Nachtflug"! +++ Hallo Florian! Willkommen im Verein und viel Erfolg für deine Ausbildung! +++ Maximilian hat sich freigeflogen! Herzlichen Glückwunsch und weiter so! +++ Hallo und herzlich Willkommen Hong! Viel Spaß bei deiner Ausbildung! +++ Herzlich Willkommen im Verein Falk und viel Erfolg für deine weitere Ausbildung! +++ Tibor hat die Theorieprüfung bestanden! Herzlichen Glückwunsch und weiterhin viel Erfolg! +++ Hallo Carsten! Willkommen in der FFG und viel Spaß bei der Ausbildung! +++ Wir begrüßen Shanna nun als Vollmitglied. Viel Spass beim Fliegen!

wenig -> mittel -> viel

Professionelle Piloten arbeiten mit Checkliste
Ausdrucken und abarbeiten! Vorbereitete Links helfen bei der Beschaffung der notwendigen Informationen.

Weiterlesen ...

 Zugang zur DFS. Auf dem FFG-Account sind alle erforderlichen Daten unserer Maschinen hinterlegt. Jedes Mitglied hat hier volle Rechte! Zugangsdaten gibt es im Internen Bereich.

Hier gibt es die AIP mit allen erforderlichen Karten die im Abo der FFG liegen zum Download für unsere Mitglieder.

Letztes NOTAM EDVE
von 05.06.2019 0800Z bis 07.06.2019 1000Z
BRUENKENDORF DVOR/DME 117.7MHZ/CH124X BKD ON MAINT. DO NOT USE, FALSE INDICATION POSS.

Letztes NOTAM EDCB
von 30.05.2019 0800Z bis 30.05.2019 1600Z
SPECIAL ACITIVITY AREA ESTABLISHED FOR AEROBATIC FLIGHTS AND AIR DISPLAY 2NM RADIUS CENTERED ON 514447N 0111352E AT AIRFIELD BALLENST [more]

Letztes NOTAM EDBC
von 02.05.2019 1303Z bis 01.08.2019 2359Z
ILS RWY 26 OUT OF SERVICE.

Letztes NOTAM EDVM
von 29.04.2019 1530Z bis 28.07.2019 2359Z
HILDESHEIM INFO FREQ CHANGED TO 118.310 (8.33KHZ).

Letztes NOTAM EDDV
von 25.05.2019 0246Z bis 19.06.2019 2359Z
CRANE IN DEP SECTOR FOR ALL IFR DEP RWY 09R. PSN 522705N 0094449E. ELEV 283FT/115FT AGL. NOT MARKED AND LIGHTED.

Letztes NOTAM EDVK
von 24.05.2019 1118Z bis 09.06.2019 2200Z
VFR TRAINING FLIGHTS ACFT MTOM MORE THAN 15T PPR. CONTACT + 49 (0) 5674 2153170.

          aerodata150     Radio38